Orel 5 — EMFH — position and weather

sailwx.info

Track history (hours):
 
Tides and Currents Weather Stations Pressure Air Temp Water Temp Dewpoint Dewpoint Depression Visibility Wind Speed Wind Dir Waves Ship Positions

Orel 5

Last reported at 2015-Apr-30 19:11 UTC. Time now 2015-May-03 14:52 UTC.
Position N 39°51' E 024°05'.

Length 108 m; draft 3.4 m.

Type: Cargo ship. MMSI: 272059000.

Date/timePositionNaut miles runAvg speedWind from/ knotsBaromVisibWave heightAir tempDewpointWater temp
2015-Apr-30 19:11N 39°51' E 024°05'3 5.5
2015-Apr-30 18:33N 39°51' E 024°09'6 5.6
2015-Apr-30 17:32N 39°50' E 024°17'18 5.5
2015-Apr-30 14:14N 39°49' E 024°40'4 5.2
2015-Apr-30 13:24N 39°48' E 024°46'5 5.4
2015-Apr-30 12:28N 39°48' E 024°52'210 4.7
2015-Apr-28 16:06N 41°17' E 029°02'308 7.2
2015-Apr-26 21:11N 46°12' E 031°05'21 7.8
2015-Apr-26 18:32N 46°29' E 031°22'13 6.4
2015-Apr-26 16:31N 46°36' E 031°38'7 7.6
2015-Apr-26 15:33N 46°36' E 031°49'8 7.6
2015-Apr-26 14:33N 46°33' E 031°59'145 4.5
2015-Apr-25 06:06N 47°40' E 035°07'4 7.3
2015-Apr-25 05:33N 47°44' E 035°10'6 6.4
2015-Apr-25 04:33N 47°50' E 035°07'2 2.1
2015-Apr-25 03:30N 47°52' E 035°06'1 0.5
2015-Apr-25 02:33N 47°52' E 035°06'0 0.1
2015-Apr-25 01:28N 47°53' E 035°05'0 0.0
2015-Apr-25 00:28N 47°53' E 035°05'0 0.0
2015-Apr-24 23:28N 47°53' E 035°05'0 0.0
2015-Apr-24 22:28N 47°53' E 035°05'0 0.0
2015-Apr-24 21:28N 47°53' E 035°05'0 0.0
2015-Apr-24 20:28N 47°53' E 035°05'0 0.0
2015-Apr-24 19:28N 47°53' E 035°05'0 0.0
2015-Apr-24 18:07N 47°53' E 035°05'0 0.5
2015-Apr-24 17:25N 47°52' E 035°06'0 0.1
2015-Apr-24 14:29N 47°52' E 035°06'0 0.0
2015-Apr-24 13:29N 47°52' E 035°06'0 0.0
2015-Apr-24 12:29N 47°52' E 035°06'0 0.1
2015-Apr-24 11:29N 47°53' E 035°06'0 0.3
2015-Apr-24 10:31N 47°52' E 035°06'0 0.0
2015-Apr-24 09:31N 47°52' E 035°06'0 0.0
2015-Apr-24 08:31N 47°52' E 035°06'0 0.0
2015-Apr-24 07:31N 47°52' E 035°06'0 0.0
2015-Apr-23 18:16N 47°52' E 035°06'0 0.0
2015-Apr-23 17:28N 47°52' E 035°06'0 0.0
2015-Apr-23 16:28N 47°52' E 035°06'0 0.2
2015-Apr-23 15:29N 47°52' E 035°06'0 0.0
2015-Apr-23 14:29N 47°52' E 035°06'0 0.0
2015-Apr-23 13:32N 47°52' E 035°06'0 0.0
2015-Apr-23 12:32N 47°52' E 035°06'0 0.0
2015-Apr-23 11:32N 47°52' E 035°06'0 0.0
2015-Apr-23 10:32N 47°52' E 035°06'0 0.0
2015-Apr-23 09:32N 47°52' E 035°06'0 0.0
2015-Apr-23 08:32N 47°52' E 035°06'0 0.0
2015-Apr-23 07:32N 47°52' E 035°06'0 0.0
2015-Apr-23 06:33N 47°52' E 035°06'0 0.2
2015-Apr-23 05:33N 47°52' E 035°06'  
Track history (hours):
 
Tides and Currents Weather Stations Pressure Air Temp Water Temp Dewpoint Dewpoint Depression Visibility Wind Speed Wind Dir Waves Ship Positions

Orel 5

Last reported at 2015-Apr-30 19:11 UTC. Time now 2015-May-03 14:52 UTC.
Position N 39°51' E 024°05'.

Length 108 m; draft 3.4 m.

Type: Cargo ship. MMSI: 272059000.

Date/timePositionNaut miles runAvg speedWind from/ knotsBaromVisibWave heightAir tempDewpointWater temp
2015-Apr-30 19:11N 39°51' E 024°05'3 5.5
2015-Apr-30 18:33N 39°51' E 024°09'6 5.6
2015-Apr-30 17:32N 39°50' E 024°17'18 5.5
2015-Apr-30 14:14N 39°49' E 024°40'4 5.2
2015-Apr-30 13:24N 39°48' E 024°46'5 5.4
2015-Apr-30 12:28N 39°48' E 024°52'210 4.7
2015-Apr-28 16:06N 41°17' E 029°02'308 7.2
2015-Apr-26 21:11N 46°12' E 031°05'21 7.8
2015-Apr-26 18:32N 46°29' E 031°22'13 6.4
2015-Apr-26 16:31N 46°36' E 031°38'7 7.6
2015-Apr-26 15:33N 46°36' E 031°49'8 7.6
2015-Apr-26 14:33N 46°33' E 031°59'145 4.5
2015-Apr-25 06:06N 47°40' E 035°07'4 7.3
2015-Apr-25 05:33N 47°44' E 035°10'6 6.4
2015-Apr-25 04:33N 47°50' E 035°07'2 2.1
2015-Apr-25 03:30N 47°52' E 035°06'1 0.5
2015-Apr-25 02:33N 47°52' E 035°06'0 0.1
2015-Apr-25 01:28N 47°53' E 035°05'0 0.0
2015-Apr-25 00:28N 47°53' E 035°05'0 0.0
2015-Apr-24 23:28N 47°53' E 035°05'0 0.0
2015-Apr-24 22:28N 47°53' E 035°05'0 0.0
2015-Apr-24 21:28N 47°53' E 035°05'0 0.0
2015-Apr-24 20:28N 47°53' E 035°05'0 0.0
2015-Apr-24 19:28N 47°53' E 035°05'0 0.0
2015-Apr-24 18:07N 47°53' E 035°05'0 0.5
2015-Apr-24 17:25N 47°52' E 035°06'0 0.1
2015-Apr-24 14:29N 47°52' E 035°06'0 0.0
2015-Apr-24 13:29N 47°52' E 035°06'0 0.0
2015-Apr-24 12:29N 47°52' E 035°06'0 0.1
2015-Apr-24 11:29N 47°53' E 035°06'0 0.3
2015-Apr-24 10:31N 47°52' E 035°06'0 0.0
2015-Apr-24 09:31N 47°52' E 035°06'0 0.0
2015-Apr-24 08:31N 47°52' E 035°06'0 0.0
2015-Apr-24 07:31N 47°52' E 035°06'0 0.0
2015-Apr-23 18:16N 47°52' E 035°06'0 0.0
2015-Apr-23 17:28N 47°52' E 035°06'0 0.0
2015-Apr-23 16:28N 47°52' E 035°06'0 0.2
2015-Apr-23 15:29N 47°52' E 035°06'0 0.0
2015-Apr-23 14:29N 47°52' E 035°06'0 0.0
2015-Apr-23 13:32N 47°52' E 035°06'0 0.0
2015-Apr-23 12:32N 47°52' E 035°06'0 0.0
2015-Apr-23 11:32N 47°52' E 035°06'0 0.0
2015-Apr-23 10:32N 47°52' E 035°06'0 0.0
2015-Apr-23 09:32N 47°52' E 035°06'0 0.0
2015-Apr-23 08:32N 47°52' E 035°06'0 0.0
2015-Apr-23 07:32N 47°52' E 035°06'0 0.0
2015-Apr-23 06:33N 47°52' E 035°06'0 0.2
2015-Apr-23 05:33N 47°52' E 035°06'  

Dump ship's entire track history